createdAt,value
2018-06-27T00:02:48.781Z,77.20
2018-06-27T00:06:14.606Z,77.50
2018-06-27T00:09:39.991Z,77.80
2018-06-27T00:13:04.937Z,77.70
2018-06-27T00:16:29.798Z,77.80
2018-06-27T00:19:54.553Z,78.00
2018-06-27T00:26:43.859Z,77.90
2018-06-27T00:30:08.658Z,78.10
2018-06-27T00:33:33.328Z,78.80
2018-06-27T00:36:58.060Z,79.00
2018-06-27T00:40:23.763Z,78.80
2018-06-27T00:43:48.525Z,78.70
2018-06-27T00:47:13.194Z,78.90
2018-06-27T00:50:38.104Z,79.30
2018-06-27T00:54:06.899Z,80.20
2018-06-27T00:57:31.555Z,79.70
2018-06-27T01:00:56.251Z,79.90
2018-06-27T01:04:21.010Z,80.10
2018-06-27T01:07:45.849Z,80.60
2018-06-27T01:11:10.647Z,80.70
2018-06-27T01:14:35.387Z,80.80
2018-06-27T01:18:00.085Z,81.20
2018-06-27T01:21:24.838Z,81.50
2018-06-27T01:24:49.455Z,81.60
2018-06-27T01:28:14.243Z,81.60
2018-06-27T01:31:38.967Z,81.80
2018-06-27T01:35:03.644Z,82.20
2018-06-27T01:38:28.367Z,82.30
2018-06-27T01:41:53.136Z,82.70
2018-06-27T01:45:17.876Z,82.80
2018-06-27T01:48:42.631Z,83.10
2018-06-27T01:52:07.342Z,83.30
2018-06-27T01:55:32.166Z,83.10
2018-06-27T01:58:56.968Z,83.60
2018-06-27T02:02:21.855Z,83.80
2018-06-27T02:05:46.591Z,84.20
2018-06-27T02:09:11.775Z,84.20
2018-06-27T02:12:36.485Z,84.20
2018-06-27T02:16:01.279Z,84.90
2018-06-27T02:19:26.000Z,84.50
2018-06-27T02:22:50.757Z,84.80
2018-06-27T02:26:15.661Z,85.10
2018-06-27T02:29:40.461Z,85.20
2018-06-27T02:33:05.269Z,85.00
2018-06-27T02:36:29.961Z,85.20
2018-06-27T02:39:54.636Z,85.30
2018-06-27T02:43:19.668Z,86.20
2018-06-27T02:46:44.391Z,85.70
2018-06-27T02:50:09.090Z,85.80
2018-06-27T02:57:02.442Z,85.90
2018-06-27T03:00:27.264Z,86.10
2018-06-27T03:03:52.112Z,86.20
2018-06-27T03:07:16.810Z,86.40
2018-06-27T03:10:41.663Z,86.50
2018-06-27T03:14:06.665Z,86.60
2018-06-27T03:17:32.686Z,86.60
2018-06-27T03:20:57.593Z,86.90
2018-06-27T03:27:47.799Z,87.60
2018-06-27T03:31:12.701Z,88.10
2018-06-27T03:34:37.605Z,87.70
2018-06-27T03:41:27.162Z,88.20
2018-06-27T03:44:52.213Z,88.70
2018-06-27T03:48:17.229Z,89.10
2018-06-27T03:51:42.231Z,89.40
2018-06-27T03:55:07.112Z,90.00
2018-06-27T03:58:31.967Z,90.30
2018-06-27T04:01:56.897Z,90.30
2018-06-27T04:05:21.850Z,90.70
2018-06-27T04:08:47.973Z,90.30
2018-06-27T04:12:12.937Z,90.60
2018-06-27T04:15:38.888Z,90.30
2018-06-27T04:19:03.741Z,90.30
2018-06-27T04:22:33.169Z,90.30
2018-06-27T04:25:58.036Z,90.30
2018-06-27T04:29:22.773Z,90.10
2018-06-27T04:32:47.512Z,90.00
2018-06-27T04:36:12.320Z,89.70
2018-06-27T04:39:37.927Z,89.60
2018-06-27T04:46:27.354Z,89.10
2018-06-27T04:49:53.500Z,89.00
2018-06-27T04:53:18.327Z,88.80
2018-06-27T04:56:43.201Z,88.90
2018-06-27T05:00:08.159Z,88.90
2018-06-27T05:03:32.911Z,88.90
2018-06-27T05:07:00.531Z,88.80
2018-06-27T05:10:25.509Z,88.20
2018-06-27T05:13:50.589Z,88.00
2018-06-27T05:17:15.339Z,88.20
2018-06-27T05:20:40.136Z,87.70
2018-06-27T05:24:06.805Z,87.30
2018-06-27T05:27:31.963Z,87.20
2018-06-27T05:30:59.716Z,86.40
2018-06-27T05:34:24.787Z,86.10
2018-06-27T05:37:49.801Z,85.70
2018-06-27T05:41:14.767Z,85.70
2018-06-27T05:44:39.912Z,85.40
2018-06-27T05:51:30.253Z,85.20
2018-06-27T05:58:29.946Z,84.90
2018-06-27T06:01:57.983Z,84.60
2018-06-27T06:05:24.060Z,84.50
2018-06-27T06:08:49.191Z,84.50
2018-06-27T06:12:14.343Z,84.00
2018-06-27T06:15:39.566Z,84.30
2018-06-27T06:19:04.641Z,83.60
2018-06-27T06:22:30.904Z,83.80
2018-06-27T06:29:20.445Z,84.60
2018-06-27T06:32:45.594Z,83.90
2018-06-27T06:36:10.607Z,83.10
2018-06-27T06:39:35.404Z,82.60
2018-06-27T06:46:25.044Z,82.20
2018-06-27T06:49:50.337Z,82.30
2018-06-27T06:53:16.441Z,81.60
2018-06-27T06:56:41.449Z,81.40
2018-06-27T07:00:06.762Z,80.90
2018-06-27T07:03:31.673Z,80.90
2018-06-27T07:06:57.716Z,80.90
2018-06-27T07:10:22.805Z,80.80
2018-06-27T07:13:47.753Z,79.60
2018-06-27T07:20:37.321Z,77.80
2018-06-27T07:24:02.506Z,76.20
2018-06-27T07:27:27.562Z,76.40
2018-06-27T07:30:52.572Z,75.80
2018-06-27T07:34:17.767Z,74.70
2018-06-27T07:37:42.700Z,75.10
2018-06-27T07:41:07.772Z,74.20
2018-06-27T07:44:32.848Z,73.30
2018-06-27T07:47:57.739Z,72.30
2018-06-27T07:54:47.318Z,71.00
2018-06-27T07:58:13.662Z,70.30
2018-06-27T08:01:38.676Z,69.30
2018-06-27T08:05:03.663Z,68.90
2018-06-27T08:08:28.782Z,68.30
2018-06-27T08:15:19.542Z,65.60
2018-06-27T08:18:45.061Z,65.00
2018-06-27T08:22:10.215Z,63.90
2018-06-27T08:25:35.320Z,62.90
2018-06-27T08:29:00.304Z,59.90
2018-06-27T08:32:25.427Z,61.40
2018-06-27T08:35:50.194Z,61.10
2018-06-27T08:39:15.282Z,61.10
2018-06-27T08:46:04.989Z,59.40
2018-06-27T08:49:29.970Z,58.10
2018-06-27T08:52:54.988Z,58.40
2018-06-27T08:56:19.972Z,57.50
2018-06-27T08:59:45.198Z,56.60
2018-06-27T09:03:10.017Z,56.80
2018-06-27T09:06:34.841Z,57.50
2018-06-27T09:09:59.973Z,57.50
2018-06-27T09:13:24.903Z,56.50
2018-06-27T09:16:49.971Z,55.80
2018-06-27T09:20:14.888Z,55.90
2018-06-27T09:23:39.882Z,55.90
2018-06-27T09:27:04.734Z,55.90
2018-06-27T09:30:30.539Z,55.20
2018-06-27T09:33:55.542Z,54.30
2018-06-27T09:37:20.390Z,54.50
2018-06-27T09:40:45.306Z,53.90
2018-06-27T09:44:10.310Z,53.30
2018-06-27T09:47:35.141Z,52.90
2018-06-27T09:50:59.888Z,51.20
2018-06-27T09:54:25.706Z,51.20
2018-06-27T10:01:15.016Z,50.00
2018-06-27T10:04:40.050Z,50.70
2018-06-27T10:08:05.941Z,49.80
2018-06-27T10:11:31.527Z,48.50
2018-06-27T10:14:56.499Z,47.50
2018-06-27T10:18:21.871Z,46.80
2018-06-27T10:21:47.225Z,46.80
2018-06-27T10:25:12.336Z,45.40
2018-06-27T10:28:38.558Z,44.70
2018-06-27T10:32:03.457Z,43.00
2018-06-27T10:35:29.535Z,43.40
2018-06-27T10:38:54.427Z,43.70
2018-06-27T10:42:19.291Z,43.30
2018-06-27T10:49:08.568Z,41.40
2018-06-27T10:52:33.516Z,39.20
2018-06-27T10:55:58.396Z,40.50
2018-06-27T11:02:47.900Z,39.40
2018-06-27T11:06:12.815Z,40.00
2018-06-27T11:13:04.504Z,39.20
2018-06-27T11:16:30.111Z,39.30
2018-06-27T11:19:55.980Z,39.20
2018-06-27T11:23:23.894Z,38.60
2018-06-27T11:26:49.344Z,39.30
2018-06-27T11:30:16.578Z,39.10
2018-06-27T11:33:42.941Z,39.00
2018-06-27T11:37:07.811Z,39.20
2018-06-27T11:40:33.430Z,39.20
2018-06-27T11:43:59.970Z,39.10
2018-06-27T11:47:24.901Z,39.20
2018-06-27T11:50:50.712Z,38.50
2018-06-27T11:54:16.255Z,38.70
2018-06-27T11:57:43.887Z,37.40
2018-06-27T12:11:24.112Z,36.10
2018-06-27T12:14:48.867Z,35.40
2018-06-27T12:18:13.657Z,35.10
2018-06-27T12:21:39.436Z,33.90
2018-06-27T12:25:04.195Z,33.30
2018-06-27T12:28:29.524Z,32.70
2018-06-27T12:31:54.355Z,32.80
2018-06-27T12:35:20.192Z,33.20
2018-06-27T12:38:46.961Z,31.10
2018-06-27T12:42:11.884Z,31.30
2018-06-27T12:45:36.749Z,32.40
2018-06-27T12:49:01.656Z,32.20
2018-06-27T12:52:26.539Z,33.00
2018-06-27T12:55:51.508Z,32.70
2018-06-27T12:59:16.565Z,31.80
2018-06-27T13:02:41.665Z,31.40
2018-06-27T13:06:11.769Z,31.80
2018-06-27T13:09:36.599Z,31.00
2018-06-27T13:13:01.526Z,30.60
2018-06-27T13:16:26.606Z,30.50
2018-06-27T13:23:16.391Z,31.60
2018-06-27T13:26:41.427Z,31.30
2018-06-27T13:33:32.057Z,32.20
2018-06-27T13:36:56.958Z,32.30
2018-06-27T13:40:22.187Z,32.30
2018-06-27T13:43:47.230Z,33.00
2018-06-27T13:47:13.110Z,32.10
2018-06-27T13:50:37.985Z,32.90
2018-06-27T13:54:02.962Z,33.50
2018-06-27T13:57:28.948Z,33.30
2018-06-27T14:00:53.724Z,32.70
2018-06-27T14:04:18.421Z,32.60
2018-06-27T14:07:43.236Z,32.10
2018-06-27T14:11:08.035Z,32.50
2018-06-27T14:14:32.899Z,33.00
2018-06-27T14:17:58.054Z,34.10
2018-06-27T14:21:22.938Z,34.60
2018-06-27T14:24:47.863Z,35.70
2018-06-27T14:36:14.773Z,34.00
2018-06-27T14:39:44.640Z,34.70
2018-06-27T14:43:10.562Z,34.30
2018-06-27T14:46:36.119Z,34.00
2018-06-27T14:56:49.664Z,32.90
2018-06-27T15:00:14.562Z,32.00
2018-06-27T15:03:39.371Z,31.30
2018-06-27T15:07:04.494Z,31.60
2018-06-27T15:10:29.402Z,31.60
2018-06-27T15:17:18.778Z,32.70
2018-06-27T15:20:43.885Z,32.60
2018-06-27T15:24:08.714Z,33.50
2018-06-27T15:27:33.756Z,33.90
2018-06-27T15:30:58.700Z,33.20
2018-06-27T15:34:23.614Z,33.50
2018-06-27T15:37:48.503Z,34.50
2018-06-27T15:41:14.341Z,35.20
2018-06-27T15:44:39.208Z,35.70
2018-06-27T15:48:04.154Z,36.00
2018-06-27T15:51:29.046Z,36.40
2018-06-27T15:54:53.852Z,36.70
2018-06-27T15:58:18.599Z,37.90
2018-06-27T16:01:43.487Z,38.50
2018-06-27T16:08:33.263Z,39.40
2018-06-27T16:11:57.968Z,39.30
2018-06-27T16:15:22.776Z,37.20
2018-06-27T16:18:47.466Z,36.50
2018-06-27T16:25:36.760Z,36.40
2018-06-27T16:29:01.556Z,36.20
2018-06-27T16:32:26.314Z,35.90
2018-06-27T16:35:51.439Z,37.00
2018-06-27T16:39:16.308Z,38.00
2018-06-27T16:42:41.283Z,39.70
2018-06-27T16:46:06.340Z,39.60
2018-06-27T16:49:31.195Z,40.20
2018-06-27T16:52:56.231Z,40.80
2018-06-27T16:56:21.145Z,41.20
2018-06-27T16:59:46.276Z,41.70
2018-06-27T17:03:11.113Z,41.70
2018-06-27T17:06:37.315Z,42.20
2018-06-27T17:10:02.057Z,42.30
2018-06-27T17:13:26.920Z,42.50
2018-06-27T17:20:17.096Z,41.10
2018-06-27T17:23:44.319Z,41.10
2018-06-27T17:27:09.167Z,40.70
2018-06-27T17:30:34.806Z,40.80
2018-06-27T17:33:59.742Z,41.50
2018-06-27T17:40:49.755Z,43.00
2018-06-27T17:44:14.752Z,43.00
2018-06-27T17:47:39.626Z,42.30
2018-06-27T17:51:04.674Z,41.10
2018-06-27T17:54:30.200Z,40.60
2018-06-27T17:57:55.027Z,40.30
2018-06-27T18:01:21.223Z,39.00
2018-06-27T18:04:46.210Z,38.90
2018-06-27T18:08:10.971Z,38.40
2018-06-27T18:15:00.846Z,38.40
2018-06-27T18:18:25.711Z,38.40
2018-06-27T18:21:50.559Z,39.40
2018-06-27T18:25:15.762Z,38.80
2018-06-27T18:28:43.504Z,39.00
2018-06-27T18:32:08.444Z,38.70
2018-06-27T18:35:33.499Z,38.90
2018-06-27T18:38:58.971Z,38.90
2018-06-27T18:42:24.641Z,39.50
2018-06-27T18:45:50.643Z,40.00
2018-06-27T18:49:15.407Z,41.20
2018-06-27T18:52:40.808Z,41.60
2018-06-27T18:59:31.381Z,42.90
2018-06-27T19:02:56.290Z,43.30
2018-06-27T19:06:21.348Z,43.80
2018-06-27T19:09:46.577Z,44.30
2018-06-27T19:13:11.733Z,44.20
2018-06-27T19:16:41.044Z,44.40
2018-06-27T19:26:56.899Z,44.50
2018-06-27T19:33:46.147Z,44.90
2018-06-27T19:37:10.813Z,45.30
2018-06-27T19:40:36.114Z,44.70
2018-06-27T19:44:01.026Z,44.20
2018-06-27T19:47:26.751Z,44.10
2018-06-27T19:50:51.557Z,43.80
2018-06-27T19:54:16.300Z,43.30
2018-06-27T19:57:41.057Z,44.20
2018-06-27T20:01:06.760Z,43.80
2018-06-27T20:07:56.153Z,43.70
2018-06-27T20:11:20.665Z,44.00
2018-06-27T20:14:45.521Z,44.40
2018-06-27T20:18:10.152Z,44.70
2018-06-27T20:21:35.027Z,45.00
2018-06-27T21:47:59.018Z,45.80
2018-06-27T21:51:23.745Z,52.50
2018-06-27T21:54:48.418Z,52.40
2018-06-27T21:58:14.398Z,52.20
2018-06-27T22:01:39.117Z,52.40
2018-06-27T22:05:03.975Z,52.50
2018-06-27T22:11:53.194Z,52.80
2018-06-27T22:15:18.105Z,52.90
2018-06-27T22:18:43.194Z,53.80
2018-06-27T22:22:07.978Z,53.40
2018-06-27T22:25:32.803Z,53.40
2018-06-27T22:28:57.590Z,53.60
2018-06-27T22:32:22.375Z,54.50
2018-06-27T22:35:47.155Z,54.10
2018-06-27T22:39:12.341Z,54.10
2018-06-27T22:42:37.069Z,55.40
2018-06-27T22:46:01.846Z,54.60
2018-06-27T22:49:26.581Z,54.50
2018-06-27T22:52:51.462Z,54.90
2018-06-27T22:56:16.160Z,54.90
2018-06-27T22:59:40.946Z,55.00
2018-06-27T23:06:30.143Z,55.30
2018-06-27T23:09:54.838Z,55.60
2018-06-27T23:13:19.517Z,55.70
2018-06-27T23:16:44.144Z,56.00
2018-06-27T23:20:08.991Z,56.20
2018-06-27T23:23:33.756Z,56.10
2018-06-27T23:26:58.509Z,56.10
2018-06-27T23:30:22.475Z,56.30
2018-06-27T23:33:47.244Z,57.00
2018-06-27T23:37:11.241Z,56.20
2018-06-27T23:40:35.145Z,56.40
2018-06-27T23:43:59.174Z,56.60
2018-06-27T23:47:23.151Z,56.90
2018-06-27T23:50:47.128Z,56.90
2018-06-27T23:54:11.782Z,57.00
